Latest Coastal Weather Observations for South Johnstone

IDQ60701

Issued at 3:25 pm EST Sunday 26 October 2014 (issued every 10 minutes, with the page automatically refreshed every 10 minutes)

About coastal observations | Map of coastal stations | Coastal observations for QLD | Marine services | Other Formats
Station Details ID: 032037 Name: SOUTH JOHNSTONE EXP STN Lat: -17.61 Lon: 146.00 Height: 18.3 m
Data from the previous 72 hours. | See also: Recent months at South Johnstone
Date/Time
EST
Temp

°C
Wind Pressure Rain
since 9am
mm
Weather Cloud Vis
km
Sea
Height
m
Swell
Dir
 
Speed
knots
Gust
knots
hPa Trend Height
m
Period
s
Dir
26/03:00pm 27.4 E 7 11 1014.5 - 0.0 - - - - - - -
26/02:30pm 27.6 ESE 7 14 1014.9 - 0.0 - - - - - - -
26/02:00pm 27.3 E 7 11 1015.3 - 0.0 - - - - - - -
26/01:30pm 27.9 ESE 8 13 1015.6 - 0.0 - - - - - - -
26/01:00pm 27.6 SE 7 12 1015.7 - 0.0 - - - - - - -
26/12:30pm 27.6 ESE 7 12 1016.2 - 0.0 - - - - - - -
26/12:00pm 28.0 SE 6 11 1016.7 - 0.0 - - - - - - -
26/11:30am 27.3 SSE 8 13 1017.1 - 0.0 - - - - - - -
26/11:00am 27.4 E 9 13 1017.4 - 0.0 - - - - - - -
26/10:30am 27.2 ESE 8 13 1017.7 - 0.0 - - - - - - -
26/10:00am 26.7 ESE 8 12 1017.9 - 0.0 - - - - - - -
26/09:30am 25.1 SE 6 10 1018.2 - 0.0 - - - - - - -
26/09:00am 25.5 SSE 6 9 1018.2 - 0.0 - - - - - - -
26/08:30am 23.9 SSE 5 8 1018.3 - 0.0 - - - - - - -
26/08:00am 22.8 SW 1 4 1018.1 - 0.0 - - - - - - -
26/07:30am 20.1 CALM 0 0 1017.6 - 0.0 - - - - - - -
26/07:00am 18.6 WSW 4 7 1017.4 - 0.0 - - - - - - -
26/06:30am 18.0 CALM 0 1 1017.1 - 0.0 - - - - - - -
26/06:00am 17.3 CALM 0 1 1016.9 - 0.0 - - - - - - -
26/05:30am 17.0 W 2 4 1016.8 - 0.0 - - - - - - -
26/05:00am 16.6 CALM 0 3 1016.5 - 0.0 - - - - - - -
26/04:30am 16.3 WNW 3 6 1016.4 - 0.0 - - - - - - -
26/04:00am 16.5 W 3 6 1016.3 - 0.0 - - - - - - -
26/03:30am 16.4 WNW 4 6 1016.2 - 0.0 - - - - - - -
26/03:00am 16.7 WNW 3 5 1016.3 - 0.0 - - - - - - -
26/02:30am 16.6 W 3 5 1016.7 - 0.0 - - - - - - -
26/02:00am 16.4 WSW 2 5 1016.9 - 0.0 - - - - - - -
26/01:30am 16.9 WNW 2 5 1017.1 - 0.0 - - - - - - -
26/01:00am 16.9 NW 2 5 1017.5 - 0.0 - - - - - - -
26/12:30am 16.8 WSW 7 9 1017.8 - 0.0 - - - - - - -
26/12:00am 16.9 W 3 6 1018.0 - 0.0 - - - - - - -
 
Date/Time
EST
Temp

°C
Wind Pressure Rain
since 9am
mm
Weather Cloud Vis
km
Sea
Height
m
Swell
Dir
 
Speed
knots
Gust
knots
hPa Trend Height
m
Period
s
Dir
25/11:30pm 17.5 W 3 6 1018.4 - 0.0 - - - - - - -
25/11:00pm 17.9 W 1 5 1018.7 - 0.0 - - - - - - -
25/10:30pm 18.1 CALM 0 0 1018.9 - 0.0 - - - - - - -
25/10:00pm 18.7 W 3 6 1019.0 - 0.0 - - - - - - -
25/09:30pm 19.4 W 5 7 1018.7 - 0.0 - - - - - - -
25/09:00pm 20.2 WSW 5 7 1018.4 - 0.0 - - - - - - -
25/08:30pm 20.5 CALM 0 0 1018.4 - 0.0 - - - - - - -
25/08:00pm 21.3 CALM 0 0 1018.1 - 0.0 - - - - - - -
25/07:30pm 21.5 SSE 4 6 1018.0 - 0.0 - - - - - - -
25/07:00pm 21.7 SSE 4 5 1017.7 - 0.0 - - - - - - -
25/06:30pm 22.4 SE 5 6 1017.4 - 0.0 - - - - - - -
25/06:00pm 24.2 ESE 7 9 1017.1 - 0.0 - - - - - - -
25/05:30pm 25.2 ESE 8 11 1016.9 - 0.0 - - - - - - -
25/05:00pm 26.1 SE 9 13 1016.5 - 0.0 - - - - - - -
25/04:30pm 26.9 ESE 7 11 1016.2 - 0.0 - - - - - - -
25/04:00pm 27.2 SE 8 13 1016.0 - 0.0 - - - - - - -
25/03:30pm 27.5 ESE 8 13 1016.2 - 0.0 - - - - - - -
25/03:00pm 27.5 SSE 8 13 1016.2 - 0.0 - - - - - - -
25/02:30pm 28.4 ESE 6 12 1016.5 - 0.0 - - - - - - -
25/02:00pm 27.6 SSE 9 13 1016.8 - 0.0 - - - - - - -
25/01:30pm 27.9 ESE 8 13 1017.1 - 0.0 - - - - - - -
25/01:00pm 27.9 ESE 9 15 1017.5 - 0.0 - - - - - - -
25/12:30pm 28.3 ESE 8 14 1017.8 - 0.0 - - - - - - -
25/12:00pm 27.5 S 9 16 1018.2 - 0.0 - - - - - - -
25/11:30am 27.5 SE 9 13 1018.9 - 0.0 - - - - - - -
25/11:00am 26.1 E 7 12 1019.1 - 0.0 - - - - - - -
25/10:30am 27.6 ESE 7 13 1019.3 - 0.0 - - - - - - -
25/10:00am 27.1 E 9 13 1019.6 - 0.0 - - - - - - -
25/09:30am 26.8 ESE 8 13 1020.0 - 0.0 - - - - - - -
25/09:00am 25.7 ESE 10 17 1019.9 - 0.2 - - - - - - -
25/08:30am 25.3 SE 10 15 1020.0 - 0.2 - - - - - - -
25/08:00am 25.1 SE 10 15 1019.7 - 0.2 - - - - - - -
25/07:30am 22.3 CALM 0 0 1019.3 - 0.2 - - - - - - -
25/07:00am 19.6 NW 2 4 1019.0 - 0.2 - - - - - - -
25/06:30am 18.2 WSW 5 7 1018.7 - 0.2 - - - - - - -
25/06:00am 18.4 CALM 0 0 1018.4 - 0.2 - - - - - - -
25/05:30am 18.6 W 3 5 1018.2 - 0.2 - - - - - - -
25/05:00am 19.0 WNW 3 5 1018.0 - 0.2 - - - - - - -
25/04:30am 19.2 CALM 0 0 1017.9 - 0.2 - - - - - - -
25/04:00am 19.7 WNW 3 5 1017.8 - 0.2 - - - - - - -
25/03:30am 21.2 S 2 6 1017.6 - 0.2 - - - - - - -
25/03:00am 21.8 S 5 8 1017.6 - 0.2 - - - - - - -
25/02:30am 21.8 S 5 8 1017.7 - 0.2 - - - - - - -
25/02:00am 22.3 SSE 6 9 1017.9 - 0.2 - - - - - - -
25/01:30am 22.1 S 6 9 1018.2 - 0.2 - - - - - - -
25/01:00am 20.9 S 4 6 1018.5 - 0.2 - - - - - - -
25/12:30am 19.1 CALM 0 3 1018.8 - 0.2 - - - - - - -
25/12:00am 19.3 W 4 6 1019.1 - 0.2 - - - - - - -
 
Date/Time
EST
Temp

°C
Wind Pressure Rain
since 9am
mm
Weather Cloud Vis
km
Sea
Height
m
Swell
Dir
 
Speed
knots
Gust
knots
hPa Trend Height
m
Period
s
Dir
24/11:30pm 19.4 CALM 0 0 1019.6 - 0.2 - - - - - - -
24/11:00pm 20.0 CALM 0 0 1019.8 - 0.2 - - - - - - -
24/10:30pm 21.6 S 3 6 1019.9 - 0.2 - - - - - - -
24/10:00pm 22.0 S 2 6 1019.9 - 0.2 - - - - - - -
24/09:30pm 21.8 CALM 0 6 1019.8 - 0.2 - - - - - - -
24/09:00pm 21.6 CALM 0 0 1019.3 - 0.2 - - - - - - -
24/08:30pm 22.0 S 3 5 1019.2 - 0.2 - - - - - - -
24/08:00pm 22.4 S 2 6 1018.7 - 0.2 - - - - - - -
24/07:30pm 22.4 S 4 6 1018.4 - 0.2 - - - - - - -
24/07:00pm 22.8 S 4 7 1018.3 - 0.2 - - - - - - -
24/06:30pm 22.9 S 4 7 1018.2 - 0.2 - - - - - - -
24/06:00pm 23.7 SSE 8 11 1017.7 - 0.2 - - - - - - -
24/05:30pm 24.5 SE 10 14 1017.4 - 0.2 - - - - - - -
24/05:00pm 25.3 SE 9 13 1017.1 - 0.2 - - - - - - -
24/04:30pm 25.8 SE 10 15 1016.9 - 0.2 - - - - - - -
24/04:00pm 25.7 ESE 10 17 1016.8 - 0.2 - - - - - - -
24/03:30pm 26.7 SE 10 16 1016.8 - 0.2 - - - - - - -
24/03:00pm 26.5 SE 11 17 1016.8 - 0.2 - - - - - - -
24/02:30pm 27.4 SSE 10 17 1016.9 - 0.2 - - - - - - -
24/02:00pm 25.9 ESE 11 17 1017.2 - 0.2 - - - - - - -
24/01:30pm 27.5 ESE 10 17 1017.5 - 0.2 - - - - - - -
24/01:00pm 27.7 SE 11 17 1017.8 - 0.2 - - - - - - -
24/12:30pm 28.0 ESE 10 17 1018.2 - 0.2 - - - - - - -
24/12:00pm 26.9 SSE 10 15 1018.5 - 0.2 - - - - - - -
24/11:30am 26.3 ESE 10 16 1019.0 - 0.2 - - - - - - -
24/11:00am 27.1 SE 10 14 1019.2 - 0.2 - - - - - - -
24/10:30am 27.0 SSE 9 15 1019.3 - 0.0 - - - - - - -
24/10:00am 26.7 ESE 10 16 1019.6 - 0.0 - - - - - - -
24/09:30am 26.5 ESE 9 15 1019.7 - 0.0 - - - - - - -
24/09:00am 25.5 SE 8 15 1019.6 - 3.2 - - - - - - -
24/08:30am 24.3 SSE 8 12 1019.6 - 3.2 - - - - - - -
24/08:00am 23.8 SSE 5 8 1019.5 - 3.2 - - - - - - -
24/07:30am 23.4 S 4 7 1019.1 - 3.2 - - - - - - -
24/07:00am 20.2 CALM 0 3 1018.9 - 3.2 - - - - - - -
24/06:30am 20.1 SW 1 4 1018.6 - 3.2 - - - - - - -
24/06:00am 19.9 WSW 2 5 1018.3 - 3.2 - - - - - - -
24/05:30am 19.5 W 1 5 1018.2 - 1.4 - - - - - - -
24/05:00am 19.8 W 2 4 1017.8 - 1.4 - - - - - - -
24/04:30am 19.7 W 3 5 1017.5 - 1.4 - - - - - - -
24/04:00am 20.2 CALM 0 0 1017.4 - 1.4 - - - - - - -
24/03:30am 21.2 S 4 5 1017.3 - 1.4 - - - - - - -
24/03:00am 21.0 SSW 3 5 1017.3 - 1.4 - - - - - - -
24/02:30am 20.0 ENE 1 10 1017.5 - 1.4 - - - - - - -
24/02:00am 19.7 CALM 0 4 1017.7 - 1.0 - - - - - - -
24/01:30am 19.3 CALM 0 4 1018.2 - 1.0 - - - - - - -
24/01:00am 19.4 NNW 1 4 1018.7 - 1.0 - - - - - - -
24/12:30am 19.8 WSW 4 7 1018.9 - 0.4 - - - - - - -
24/12:00am 19.7 W 2 4 1019.2 - 0.0 - - - - - - -
 
Date/Time
EST
Temp

°C
Wind Pressure Rain
since 9am
mm
Weather Cloud Vis
km
Sea
Height
m
Swell
Dir
 
Speed
knots
Gust
knots
hPa Trend Height
m
Period
s
Dir
23/11:30pm 19.8 W 3 5 1019.5 - 0.0 - - - - - - -
23/11:00pm 20.1 W 4 6 1019.6 - 0.0 - - - - - - -
23/10:30pm 20.1 CALM 0 2 1019.7 - 0.0 - - - - - - -
23/10:00pm 21.1 CALM 0 0 1019.7 - 0.0 - - - - - - -
23/09:30pm 21.7 SSE 3 4 1019.4 - 0.0 - - - - - - -
23/09:00pm 22.2 S 3 5 1019.0 - 0.0 - - - - - - -
23/08:30pm 22.2 CALM 0 0 1018.9 - 0.0 - - - - - - -
23/08:00pm 22.3 CALM 0 3 1018.6 - 0.0 - - - - - - -
23/07:30pm 22.4 CALM 0 3 1018.4 - 0.0 - - - - - - -
23/07:00pm 23.1 S 2 6 1018.1 - 0.0 - - - - - - -
23/06:30pm 23.1 CALM 0 4 1017.7 - 0.0 - - - - - - -
23/06:00pm 24.2 SE 8 12 1017.3 - 0.0 - - - - - - -
23/05:30pm 24.8 ESE 9 14 1017.1 - 0.0 - - - - - - -
23/05:00pm 25.5 SSE 10 14 1016.7 - 0.0 - - - - - - -
23/04:30pm 26.4 SE 10 17 1016.2 - 0.0 - - - - - - -
23/04:00pm 26.3 SE 11 14 1015.9 - 0.0 - - - - - - -
23/03:30pm 26.4 SE 10 16 1015.8 - 0.0 - - - - - - -

Other Formats:

Comma delimited format used in spreadsheet applications
http://www.bom.gov.au/fwo/IDQ60701/IDQ60701.95292.axf

JavaScript Object Notation format (JSON) in row-major order
http://www.bom.gov.au/fwo/IDQ60701/IDQ60701.95292.json